Time;durP1;ratioP1;P1;durP2;ratioP2;P2;SDS_P1;SDS_P2;PMS_P1;PMS_P2;Temp;Humidity;BMP_temperature;BMP_pressure;BME280_temperature;BME280_humidity;BME280_pressure;Samples;Min_cycle;Max_cycle;Signal;HPM_P1;HPM_P2
2021/07/09 00:02:12;;;;;;;13.70;12.43;;;;;;;16.30;100.00;98031.38;4983500;28;20213;-71
2021/07/09 00:04:41;;;;;;;13.03;12.03;;;;;;;16.26;100.00;98022.09;4982345;28;20197;-72
2021/07/09 00:07:10;;;;;;;9.67;8.77;;;;;;;16.25;100.00;98021.25;4983337;28;20229;-71
2021/07/09 00:09:38;;;;;;;10.87;9.97;;;;;;;16.16;100.00;98012.63;4980798;28;20228;-72
2021/07/09 00:12:06;;;;;;;8.87;8.17;;;;;;;16.26;100.00;98022.91;4983689;28;20662;-71
2021/07/09 00:14:36;;;;;;;7.87;7.27;;;;;;;16.26;100.00;98022.09;4984077;28;20219;-73
2021/07/09 00:17:05;;;;;;;7.20;6.63;;;;;;;16.15;100.00;98023.50;4982910;28;20229;-74
2021/07/09 00:19:33;;;;;;;7.67;6.97;;;;;;;16.13;100.00;98041.59;4984401;28;20282;-70
2021/07/09 00:22:03;;;;;;;7.10;6.50;;;;;;;16.09;100.00;98035.00;4985393;28;20230;-73
2021/07/09 00:24:31;;;;;;;7.20;6.70;;;;;;;16.19;100.00;98022.91;4981526;28;20511;-71
2021/07/09 00:27:01;;;;;;;7.27;6.67;;;;;;;16.20;100.00;98021.88;4982437;28;20238;-71
2021/07/09 00:29:29;;;;;;;7.17;6.67;;;;;;;16.14;100.00;98041.41;4981462;28;20268;-68
2021/07/09 00:31:57;;;;;;;8.67;7.47;;;;;;;16.16;100.00;98054.56;4980739;28;20205;-71
2021/07/09 00:34:25;;;;;;;7.33;6.83;;;;;;;16.05;100.00;98053.25;4982859;28;20639;-71
2021/07/09 00:36:53;;;;;;;7.53;7.00;;;;;;;16.13;100.00;98066.47;4984740;28;20225;-71
2021/07/09 00:39:22;;;;;;;7.47;7.07;;;;;;;15.89;100.00;98055.25;4982891;28;20849;-71
2021/07/09 00:41:51;;;;;;;8.50;7.90;;;;;;;15.84;100.00;98056.81;4980205;28;20230;-70
2021/07/09 00:44:19;;;;;;;8.30;7.60;;;;;;;15.83;100.00;98053.31;4984478;28;20674;-72
2021/07/09 00:46:47;;;;;;;8.33;7.73;;;;;;;15.74;100.00;98041.16;4982250;28;20624;-71
2021/07/09 00:49:15;;;;;;;8.63;8.03;;;;;;;15.68;100.00;98044.59;4983314;28;20740;-71
2021/07/09 00:51:44;;;;;;;8.73;8.03;;;;;;;15.76;100.00;98039.13;4982635;28;21150;-72
2021/07/09 00:54:12;;;;;;;7.93;7.33;;;;;;;15.67;100.00;98040.25;4983568;28;20292;-72
2021/07/09 00:56:42;;;;;;;7.73;7.23;;;;;;;15.63;100.00;98042.53;4987195;28;20236;-71
2021/07/09 00:59:13;;;;;;;8.20;7.37;;;;;;;15.54;100.00;98033.81;4988201;28;20457;-72
2021/07/09 01:01:41;;;;;;;7.27;6.60;;;;;;;15.61;100.00;98029.34;4986361;28;20217;-70
2021/07/09 01:04:09;;;;;;;7.47;6.77;;;;;;;15.53;100.00;98026.00;4985933;28;20212;-71
2021/07/09 01:06:37;;;;;;;7.53;7.03;;;;;;;15.56;100.00;98029.09;4986616;28;20224;-71
2021/07/09 01:09:05;;;;;;;8.37;7.67;;;;;;;15.54;100.00;98028.47;4987423;28;20581;-69
2021/07/09 01:11:33;;;;;;;9.00;8.07;;;;;;;15.53;100.00;98024.16;4989328;28;20205;-72
2021/07/09 01:14:03;;;;;;;9.00;8.40;;;;;;;15.46;100.00;98021.44;4985501;28;20946;-73
2021/07/09 01:16:31;;;;;;;9.30;8.50;;;;;;;15.37;100.00;98019.13;4985705;28;20625;-71
2021/07/09 01:18:59;;;;;;;8.67;8.00;;;;;;;15.26;100.00;98018.63;4986283;28;20237;-72
2021/07/09 01:21:27;;;;;;;10.27;9.43;;;;;;;15.30;100.00;98025.22;4985681;28;20235;-74
2021/07/09 01:24:00;;;;;;;9.67;8.97;;;;;;;15.28;100.00;98016.59;4985633;28;20373;-70
2021/07/09 01:26:28;;;;;;;9.57;8.87;;;;;;;15.28;100.00;98021.91;4989187;28;20320;-71
2021/07/09 01:28:57;;;;;;;9.53;8.93;;;;;;;15.21;100.00;98021.06;4985988;28;20657;-72
2021/07/09 01:31:25;;;;;;;10.00;9.20;;;;;;;15.16;100.00;98016.31;4989025;28;20209;-73
2021/07/09 01:33:53;;;;;;;8.93;8.13;;;;;;;15.07;100.00;98004.09;4982149;28;20268;-71
2021/07/09 01:36:21;;;;;;;9.77;9.03;;;;;;;15.03;100.00;98001.00;4984066;28;20252;-73
2021/07/09 01:38:50;;;;;;;9.70;8.80;;;;;;;15.13;100.00;98010.53;4985593;28;20206;-72
2021/07/09 01:41:21;;;;;;;8.60;7.90;;;;;;;15.04;100.00;97997.31;4985659;28;20327;-73
2021/07/09 01:43:49;;;;;;;7.90;7.40;;;;;;;15.00;100.00;97993.38;4985929;28;20225;-71
2021/07/09 01:46:17;;;;;;;7.57;7.07;;;;;;;14.95;100.00;97995.78;4985733;28;20229;-74
2021/07/09 01:48:46;;;;;;;7.60;7.10;;;;;;;14.95;100.00;97986.97;4986321;28;20213;-73
2021/07/09 01:51:14;;;;;;;7.13;6.63;;;;;;;14.89;100.00;97985.88;4985526;28;20654;-74
2021/07/09 01:53:42;;;;;;;7.97;7.27;;;;;;;14.83;100.00;97986.66;4986060;28;20224;-72
2021/07/09 01:56:10;;;;;;;6.73;6.23;;;;;;;14.85;100.00;97995.28;4985237;28;20233;-72
2021/07/09 01:58:40;;;;;;;6.97;6.47;;;;;;;14.89;100.00;97991.22;4985276;28;20630;-73
2021/07/09 02:01:08;;;;;;;7.17;6.67;;;;;;;14.80;100.00;97985.22;4988746;28;20213;-74
2021/07/09 02:03:37;;;;;;;6.77;6.20;;;;;;;14.82;100.00;97987.69;4985863;28;20328;-71
2021/07/09 02:06:05;;;;;;;6.90;6.40;;;;;;;14.84;100.00;97982.97;4984004;28;20229;-72
2021/07/09 02:08:32;;;;;;;7.37;6.77;;;;;;;14.79;100.00;97985.38;4985417;28;20221;-71
2021/07/09 02:11:01;;;;;;;7.67;6.97;;;;;;;14.78;100.00;97979.25;4982903;28;20586;-70
2021/07/09 02:13:28;;;;;;;7.33;6.73;;;;;;;14.81;100.00;97981.53;4985306;28;20201;-72
2021/07/09 02:15:58;;;;;;;7.30;6.63;;;;;;;14.79;100.00;97972.91;4982984;28;20238;-71
2021/07/09 02:18:26;;;;;;;6.70;6.30;;;;;;;14.74;100.00;97978.78;4991020;28;20205;-72
2021/07/09 02:20:54;;;;;;;6.50;6.10;;;;;;;14.73;100.00;97970.97;4986911;28;20210;-70
2021/07/09 02:23:22;;;;;;;6.80;6.40;;;;;;;14.84;100.00;97962.47;4988365;28;20585;-71
2021/07/09 02:25:50;;;;;;;7.10;6.50;;;;;;;14.81;100.00;97972.69;4982445;28;20222;-71
2021/07/09 02:28:18;;;;;;;7.23;6.60;;;;;;;14.79;100.00;97969.38;4982638;28;20209;-71
2021/07/09 02:30:46;;;;;;;7.67;6.97;;;;;;;14.81;100.00;97962.00;4987295;28;20209;-70
2021/07/09 02:33:16;;;;;;;7.77;7.00;;;;;;;14.81;100.00;97954.00;4983569;28;20221;-70
2021/07/09 02:35:44;;;;;;;7.07;6.53;;;;;;;14.81;100.00;97959.34;4984716;28;20236;-70
2021/07/09 02:38:12;;;;;;;7.03;6.47;;;;;;;14.69;100.00;97956.34;4983411;28;20327;-72
2021/07/09 02:40:42;;;;;;;8.00;7.40;;;;;;;14.67;100.00;97953.88;4986918;28;20678;-72
2021/07/09 02:43:10;;;;;;;7.50;7.00;;;;;;;14.71;100.00;97962.34;4985476;28;20233;-72
2021/07/09 02:45:38;;;;;;;7.67;7.00;;;;;;;14.65;100.00;97957.72;4986297;28;20235;-71
2021/07/09 02:48:18;;;;;;;7.60;6.93;;;;;;;14.73;100.00;97960.28;4987803;28;20364;-71
2021/07/09 02:50:47;;;;;;;8.97;8.10;;;;;;;14.78;100.00;97957.91;4986604;28;20363;-74
2021/07/09 02:53:15;;;;;;;7.37;6.87;;;;;;;14.74;100.00;97957.44;4985239;28;20206;-72
2021/07/09 02:55:43;;;;;;;7.60;6.87;;;;;;;14.68;100.00;97946.69;4987414;28;20229;-71
2021/07/09 02:58:11;;;;;;;7.97;7.43;;;;;;;14.69;100.00;97943.00;4984026;28;20223;-73
2021/07/09 03:00:39;;;;;;;7.87;7.27;;;;;;;14.76;100.00;97946.56;4986345;28;20292;-70
2021/07/09 03:03:07;;;;;;;7.70;7.20;;;;;;;14.71;100.00;97941.84;4986444;28;20573;-71
2021/07/09 03:05:37;;;;;;;7.27;6.77;;;;;;;14.69;100.00;97940.34;4987520;28;20228;-72
2021/07/09 03:08:05;;;;;;;7.37;6.87;;;;;;;14.70;100.00;97940.19;4985462;28;20287;-71
2021/07/09 03:10:33;;;;;;;7.10;6.60;;;;;;;14.73;100.00;97942.47;4982914;28;20216;-73
2021/07/09 03:13:01;;;;;;;7.10;6.60;;;;;;;14.75;100.00;97936.91;4983411;28;20206;-72
2021/07/09 03:15:29;;;;;;;7.10;6.60;;;;;;;14.73;100.00;97934.47;4983198;28;20225;-70
2021/07/09 03:17:57;;;;;;;8.07;7.47;;;;;;;14.66;100.00;97938.88;4986328;28;20300;-72
2021/07/09 03:20:25;;;;;;;10.80;7.10;;;;;;;14.62;100.00;97935.75;4985524;28;20217;-72
2021/07/09 03:22:55;;;;;;;7.17;6.77;;;;;;;14.66;100.00;97928.22;4983807;28;20320;-73
2021/07/09 03:25:22;;;;;;;7.80;7.30;;;;;;;14.71;100.00;97933.00;4985128;28;20534;-71
2021/07/09 03:27:50;;;;;;;7.97;7.27;;;;;;;14.65;100.00;97926.56;4982935;28;20292;-71
2021/07/09 03:30:19;;;;;;;8.10;7.50;;;;;;;14.74;100.00;97921.94;4983837;28;20685;-71
2021/07/09 03:32:47;;;;;;;7.77;7.17;;;;;;;14.61;100.00;97926.13;4983895;28;20233;-74
2021/07/09 03:35:15;;;;;;;8.60;7.90;;;;;;;14.68;100.00;97920.84;4983089;28;20241;-74
2021/07/09 03:37:43;;;;;;;7.87;7.27;;;;;;;14.60;100.00;97921.81;4985402;28;20236;-73
2021/07/09 03:40:14;;;;;;;8.80;8.10;;;;;;;14.74;100.00;97922.78;4988470;28;20580;-73
2021/07/09 03:42:42;;;;;;;8.97;8.37;;;;;;;14.64;100.00;97919.59;4976820;28;20320;-74
2021/07/09 03:45:11;;;;;;;8.40;7.80;;;;;;;14.65;100.00;97921.25;4981602;28;20221;-70
2021/07/09 03:47:39;;;;;;;8.07;7.37;;;;;;;14.72;100.00;97926.63;4983173;28;20214;-73
2021/07/09 03:50:08;;;;;;;8.87;8.27;;;;;;;14.69;100.00;97922.50;4984031;28;20213;-73
2021/07/09 03:52:36;;;;;;;8.77;8.07;;;;;;;14.66;100.00;97930.06;4985487;28;20209;-73
2021/07/09 03:55:06;;;;;;;8.47;7.90;;;;;;;14.64;100.00;97924.91;4984652;28;20666;-74
2021/07/09 03:57:35;;;;;;;7.87;7.27;;;;;;;14.68;100.00;97923.53;4982622;28;20232;-74
2021/07/09 04:00:05;;;;;;;8.13;7.50;;;;;;;14.70;100.00;97917.97;4985255;28;20208;-75
2021/07/09 04:02:32;;;;;;;8.90;8.20;;;;;;;14.68;100.00;97914.69;4976740;28;20233;-73
2021/07/09 04:05:02;;;;;;;8.60;7.80;;;;;;;14.66;100.00;97919.38;4982379;28;20267;-75
2021/07/09 04:07:30;;;;;;;7.30;6.70;;;;;;;14.67;100.00;97918.38;4974569;28;20214;-74
2021/07/09 04:09:58;;;;;;;8.20;7.60;;;;;;;14.73;100.00;97918.47;4981348;28;21268;-75
2021/07/09 04:12:26;;;;;;;7.47;6.87;;;;;;;14.74;100.00;97908.59;4981598;28;20900;-75
2021/07/09 04:14:55;;;;;;;8.03;7.40;;;;;;;14.68;100.00;97920.84;4980767;28;20216;-74
2021/07/09 04:17:23;;;;;;;8.97;8.27;;;;;;;14.70;100.00;97920.66;4978803;28;20212;-74
2021/07/09 04:19:52;;;;;;;8.70;8.10;;;;;;;14.69;100.00;97908.31;4980444;28;20201;-73
2021/07/09 04:22:20;;;;;;;10.33;9.43;;;;;;;14.71;100.00;97919.66;4985112;28;20206;-76
2021/07/09 04:24:48;;;;;;;9.20;8.50;;;;;;;14.76;100.00;97912.75;4984645;28;20216;-75
2021/07/09 04:27:16;;;;;;;8.80;8.13;;;;;;;14.85;100.00;97916.09;4985011;28;20320;-75
2021/07/09 04:29:44;;;;;;;9.23;8.47;;;;;;;14.90;100.00;97911.00;4986172;28;20201;-75
2021/07/09 04:32:13;;;;;;;9.00;8.30;;;;;;;14.87;100.00;97910.56;4980994;28;20206;-78
2021/07/09 04:34:41;;;;;;;15.77;9.07;;;;;;;14.82;100.00;97905.81;4984890;28;20211;-76
2021/07/09 04:37:10;;;;;;;9.77;9.13;;;;;;;14.89;100.00;97909.34;4982938;28;20698;-77
2021/07/09 04:39:38;;;;;;;9.27;8.50;;;;;;;14.89;100.00;97904.00;4981776;28;20201;-76
2021/07/09 04:42:07;;;;;;;9.70;8.77;;;;;;;14.95;100.00;97907.72;4981729;28;20617;-76
2021/07/09 04:44:35;;;;;;;9.50;8.80;;;;;;;14.99;100.00;97905.50;4982768;28;20236;-72
2021/07/09 04:47:04;;;;;;;8.63;7.93;;;;;;;14.98;100.00;97902.03;4982628;28;20226;-74
2021/07/09 04:49:33;;;;;;;7.30;6.80;;;;;;;14.95;100.00;97906.91;4986112;28;20385;-75
2021/07/09 04:52:01;;;;;;;7.40;6.80;;;;;;;14.97;100.00;97911.06;4981081;28;20696;-75
2021/07/09 04:54:29;;;;;;;6.80;6.30;;;;;;;14.91;100.00;97917.16;4982390;28;20210;-73
2021/07/09 04:56:57;;;;;;;6.60;6.10;;;;;;;14.90;100.00;97918.16;4978359;28;20229;-76
2021/07/09 04:59:25;;;;;;;5.90;5.53;;;;;;;14.84;100.00;97914.44;4983726;28;20225;-76
2021/07/09 05:01:54;;;;;;;4.93;4.63;;;;;;;14.80;100.00;97910.53;4985307;28;20578;-75
2021/07/09 05:04:22;;;;;;;5.43;4.97;;;;;;;14.84;100.00;97919.78;4979804;28;20230;-75
2021/07/09 05:06:51;;;;;;;5.43;5.03;;;;;;;14.87;100.00;97921.22;4982171;28;20729;-77
2021/07/09 05:09:19;;;;;;;4.73;4.43;;;;;;;14.85;100.00;97913.44;4982302;28;20217;-76
2021/07/09 05:11:48;;;;;;;4.97;4.50;;;;;;;14.91;100.00;97914.47;4983004;28;20217;-76
2021/07/09 05:14:16;;;;;;;4.90;4.50;;;;;;;14.85;100.00;97907.25;4982516;28;20206;-77
2021/07/09 05:16:45;;;;;;;5.97;5.57;;;;;;;14.92;100.00;97915.31;4985850;28;20229;-76
2021/07/09 05:19:13;;;;;;;5.20;4.50;;;;;;;15.00;100.00;97912.50;4983793;28;20268;-76
2021/07/09 05:21:40;;;;;;;4.43;4.13;;;;;;;14.97;100.00;97919.06;4983018;28;20898;-76
2021/07/09 05:24:12;;;;;;;4.43;3.43;;;;;;;14.94;100.00;97919.41;4981068;28;20237;-77
2021/07/09 05:26:42;;;;;;;3.80;3.50;;;;;;;14.88;100.00;97914.88;4981545;28;20237;-76
2021/07/09 05:29:10;;;;;;;3.30;3.10;;;;;;;14.91;100.00;97922.47;4985294;28;20221;-75
2021/07/09 05:31:38;;;;;;;2.50;2.40;;;;;;;14.80;100.00;97917.69;4985545;28;20229;-75
2021/07/09 05:34:07;;;;;;;2.40;2.30;;;;;;;14.64;100.00;97918.75;4983469;28;20512;-76
2021/07/09 05:36:36;;;;;;;2.73;2.53;;;;;;;14.64;100.00;97910.75;4985634;28;20228;-76
2021/07/09 05:39:05;;;;;;;1.93;1.83;;;;;;;14.47;100.00;97917.16;4986304;28;20217;-77
2021/07/09 05:41:34;;;;;;;2.10;2.00;;;;;;;14.30;100.00;97923.78;4989087;28;20201;-76
2021/07/09 05:44:02;;;;;;;2.27;2.17;;;;;;;14.26;100.00;97927.84;4986049;28;20229;-76
2021/07/09 05:46:30;;;;;;;1.90;1.80;;;;;;;14.18;100.00;97932.25;4991765;28;20229;-76
2021/07/09 05:48:58;;;;;;;2.03;1.83;;;;;;;14.18;100.00;97934.91;4984781;28;20209;-76
2021/07/09 05:51:26;;;;;;;2.77;2.40;;;;;;;14.17;100.00;97941.25;4990376;28;20697;-77
2021/07/09 05:53:54;;;;;;;2.50;2.30;;;;;;;14.14;100.00;97944.31;4985583;28;20213;-74
2021/07/09 05:56:22;;;;;;;2.70;2.60;;;;;;;14.09;100.00;97943.25;4989248;28;20277;-75
2021/07/09 05:58:52;;;;;;;2.40;2.30;;;;;;;14.13;100.00;97949.84;4984146;28;20559;-76
2021/07/09 06:01:20;;;;;;;2.67;2.57;;;;;;;14.08;100.00;97949.59;4979945;28;20472;-76
2021/07/09 06:03:48;;;;;;;2.33;2.23;;;;;;;14.09;100.00;97948.56;4982196;28;20283;-75
2021/07/09 06:06:16;;;;;;;1.90;1.80;;;;;;;14.06;100.00;97952.41;4984678;28;20605;-75
2021/07/09 06:08:44;;;;;;;4.40;2.20;;;;;;;14.06;100.00;97955.09;4985141;28;20559;-78
2021/07/09 06:11:12;;;;;;;2.30;2.20;;;;;;;14.10;100.00;97967.03;4987892;28;20253;-76
2021/07/09 06:13:40;;;;;;;2.60;2.50;;;;;;;14.06;100.00;97973.75;4989144;28;20462;-76
2021/07/09 06:16:15;;;;;;;2.30;2.10;;;;;;;13.97;100.00;97970.34;4987174;28;20237;-76
2021/07/09 06:18:43;;;;;;;2.10;2.00;;;;;;;13.96;100.00;97975.88;4976574;28;20210;-78
2021/07/09 06:21:22;;;;;;;1.93;1.53;;;;;;;13.88;100.00;97977.63;4986560;28;20216;-75
2021/07/09 06:23:50;;;;;;;2.23;2.13;;;;;;;13.73;100.00;97982.97;4979551;28;20233;-77
2021/07/09 06:26:18;;;;;;;2.27;2.17;;;;;;;13.62;100.00;98001.25;4979904;28;20737;-76
2021/07/09 06:28:46;;;;;;;3.13;3.00;;;;;;;13.55;100.00;98001.13;4986636;28;20213;-75
2021/07/09 06:31:16;;;;;;;3.60;3.40;;;;;;;13.31;100.00;98001.19;4987684;28;20701;-76
2021/07/09 06:33:44;;;;;;;3.73;3.43;;;;;;;13.26;100.00;98000.91;4987592;28;20206;-75
2021/07/09 06:36:12;;;;;;;3.83;3.47;;;;;;;13.20;100.00;98003.44;4987017;28;20352;-75
2021/07/09 06:38:44;;;;;;;4.07;3.70;;;;;;;13.10;100.00;98014.38;4990411;28;20206;-75
2021/07/09 06:41:13;;;;;;;3.50;3.20;;;;;;;13.08;100.00;98019.84;4984693;28;20210;-76
2021/07/09 06:43:41;;;;;;;3.30;3.10;;;;;;;13.12;100.00;98029.13;4982584;28;20219;-75
2021/07/09 06:46:10;;;;;;;2.93;2.73;;;;;;;13.05;100.00;98032.69;4984401;28;20738;-77
2021/07/09 06:48:39;;;;;;;2.93;2.73;;;;;;;13.08;100.00;98037.66;4977923;28;20696;-75
2021/07/09 06:51:07;;;;;;;3.43;3.23;;;;;;;13.03;100.00;98048.84;4977971;28;20209;-78
2021/07/09 06:53:35;;;;;;;2.90;2.77;;;;;;;13.08;100.00;98049.13;4978121;28;20264;-78
2021/07/09 06:56:04;;;;;;;2.80;2.70;;;;;;;13.13;100.00;98045.94;4984623;28;20233;-77
2021/07/09 06:58:32;;;;;;;2.77;2.20;;;;;;;13.03;100.00;98052.31;4985009;28;20296;-76
2021/07/09 07:01:00;;;;;;;2.57;2.47;;;;;;;13.12;100.00;98060.25;4985387;28;20217;-76
2021/07/09 07:03:29;;;;;;;2.67;2.57;;;;;;;13.14;100.00;98055.56;4975127;28;20460;-76
2021/07/09 07:05:58;;;;;;;3.20;2.43;;;;;;;13.15;100.00;98065.22;4973725;28;20234;-78
2021/07/09 07:08:26;;;;;;;2.43;2.33;;;;;;;13.20;100.00;98069.97;4977939;28;20205;-80
2021/07/09 07:10:56;;;;;;;2.47;1.87;;;;;;;13.15;100.00;98081.16;4977735;28;20232;-76
2021/07/09 07:13:25;;;;;;;2.10;2.00;;;;;;;13.17;100.00;98090.63;4980758;28;20293;-77
2021/07/09 07:15:54;;;;;;;1.87;1.77;;;;;;;13.19;100.00;98077.16;4976802;28;20218;-80
2021/07/09 07:18:22;;;;;;;1.83;1.73;;;;;;;13.20;100.00;98078.81;4980111;28;20225;-77
2021/07/09 07:20:50;;;;;;;1.60;1.60;;;;;;;13.23;100.00;98099.72;4976050;28;20217;-77
2021/07/09 07:23:20;;;;;;;1.37;1.27;;;;;;;13.25;100.00;98083.56;4982661;28;20214;-78
2021/07/09 07:25:49;;;;;;;1.50;1.50;;;;;;;13.32;100.00;98081.88;4982548;28;20488;-78
2021/07/09 07:28:18;;;;;;;1.00;1.00;;;;;;;13.30;100.00;98087.34;4980676;28;20206;-77
2021/07/09 07:31:05;;;;;;;1.30;1.30;;;;;;;13.31;100.00;98101.50;4980872;28;20582;-78
2021/07/09 07:33:33;;;;;;;1.47;1.43;;;;;;;13.27;100.00;98103.69;4983181;28;20205;-75
2021/07/09 07:36:18;;;;;;;1.67;1.63;;;;;;;13.24;100.00;98093.41;4985923;28;20229;-74
2021/07/09 07:38:48;;;;;;;2.40;2.10;;;;;;;13.22;100.00;98110.53;4985386;28;20301;-76
2021/07/09 07:41:18;;;;;;;2.30;2.20;;;;;;;13.23;100.00;98094.41;4986918;28;20689;-74
2021/07/09 07:43:47;;;;;;;1.70;1.70;;;;;;;13.29;100.00;98096.34;4988874;28;20917;-77
2021/07/09 07:46:17;;;;;;;2.33;2.20;;;;;;;13.32;100.00;98084.53;4981672;28;20240;-75
2021/07/09 07:48:46;;;;;;;2.03;1.93;;;;;;;13.34;100.00;98105.63;4987066;28;20209;-74
2021/07/09 07:51:17;;;;;;;2.53;2.40;;;;;;;13.36;100.00;98100.94;4981835;28;20209;-76
2021/07/09 07:53:47;;;;;;;2.30;2.20;;;;;;;13.39;100.00;98097.94;4987734;28;20202;-76
2021/07/09 07:56:16;;;;;;;2.47;2.27;;;;;;;13.36;100.00;98098.28;4981411;28;20221;-75
2021/07/09 07:58:44;;;;;;;2.70;2.50;;;;;;;13.44;100.00;98103.56;4985330;28;20220;-77
2021/07/09 08:01:13;;;;;;;3.57;2.80;;;;;;;13.53;100.00;98096.34;4987602;28;20543;-76
2021/07/09 08:03:41;;;;;;;3.03;2.63;;;;;;;13.56;100.00;98095.97;4983284;28;20376;-75
2021/07/09 08:06:09;;;;;;;3.30;3.10;;;;;;;13.55;100.00;98095.16;4983977;28;20230;-75
2021/07/09 08:08:38;;;;;;;2.87;2.77;;;;;;;13.64;100.00;98095.09;4985359;28;20651;-75
2021/07/09 08:11:08;;;;;;;3.80;3.60;;;;;;;13.58;100.00;98097.47;4983118;28;20206;-74
2021/07/09 08:13:35;;;;;;;3.13;3.03;;;;;;;13.58;100.00;98100.13;4978444;28;20218;-76
2021/07/09 08:16:04;;;;;;;3.80;3.60;;;;;;;13.62;100.00;98103.25;4987238;28;20225;-77
2021/07/09 08:18:32;;;;;;;4.10;3.80;;;;;;;13.62;100.00;98103.25;4986379;28;20446;-78
2021/07/09 08:21:00;;;;;;;4.37;4.03;;;;;;;13.66;100.00;98106.38;4984863;28;20705;-77
2021/07/09 08:23:29;;;;;;;4.00;3.70;;;;;;;13.68;100.00;98107.03;4983827;28;20237;-74
2021/07/09 08:25:57;;;;;;;4.40;4.20;;;;;;;13.69;100.00;98108.69;4983994;28;20457;-80
2021/07/09 08:28:27;;;;;;;4.47;4.17;;;;;;;13.75;100.00;98115.94;4987915;28;20539;-79
2021/07/09 08:30:56;;;;;;;4.37;4.07;;;;;;;13.72;100.00;98116.31;4985729;28;20212;-78
2021/07/09 08:33:24;;;;;;;4.10;3.90;;;;;;;13.80;100.00;98121.53;4985926;28;20740;-77
2021/07/09 08:35:52;;;;;;;4.27;4.07;;;;;;;13.72;100.00;98117.16;4985404;28;20222;-78
2021/07/09 08:38:20;;;;;;;4.53;4.23;;;;;;;13.86;100.00;98128.84;4985561;28;20209;-78
2021/07/09 08:40:48;;;;;;;5.60;5.20;;;;;;;13.82;100.00;98132.84;4983984;28;20209;-77
2021/07/09 08:43:32;;;;;;;4.30;4.10;;;;;;;13.77;100.00;98123.75;4985707;28;20210;-76
2021/07/09 08:46:01;;;;;;;4.77;4.47;;;;;;;13.86;100.00;98130.66;4982732;28;20694;-76
2021/07/09 08:48:30;;;;;;;4.63;4.33;;;;;;;13.85;100.00;98139.66;4986381;28;20209;-79
2021/07/09 08:50:59;;;;;;;5.07;4.77;;;;;;;13.85;100.00;98143.16;4983062;28;20566;-75
2021/07/09 08:53:27;;;;;;;4.47;4.23;;;;;;;13.90;100.00;98150.59;4983591;28;20214;-77
2021/07/09 08:55:55;;;;;;;5.80;5.30;;;;;;;13.92;100.00;98148.56;4982294;28;20661;-79
2021/07/09 08:58:23;;;;;;;5.13;4.70;;;;;;;13.94;100.00;98149.22;4986696;28;20236;-78
2021/07/09 09:00:53;;;;;;;5.37;5.07;;;;;;;14.02;100.00;98145.66;4980216;28;20213;-78
2021/07/09 09:03:23;;;;;;;4.50;4.20;;;;;;;13.94;100.00;98151.88;4988427;28;20257;-78
2021/07/09 09:05:52;;;;;;;4.13;3.93;;;;;;;14.00;100.00;98163.66;4984370;28;20256;-77
2021/07/09 09:08:22;;;;;;;4.53;4.23;;;;;;;14.03;100.00;98150.81;4985141;28;20206;-77
2021/07/09 09:10:52;;;;;;;4.30;4.10;;;;;;;14.03;100.00;98166.78;4981051;28;20667;-79
2021/07/09 09:13:24;;;;;;;4.00;3.80;;;;;;;14.10;100.00;98163.41;4982988;28;20377;-78
2021/07/09 09:16:01;;;;;;;4.37;4.07;;;;;;;14.13;100.00;98163.84;4985511;28;20233;-77
2021/07/09 09:18:34;;;;;;;3.93;3.73;;;;;;;14.14;100.00;98175.34;4988569;28;20571;-77
2021/07/09 09:21:03;;;;;;;3.40;3.20;;;;;;;14.17;100.00;98167.78;4989902;28;20205;-80
2021/07/09 09:23:33;;;;;;;3.80;3.47;;;;;;;14.33;100.00;98172.13;4988130;28;20227;-78
2021/07/09 09:26:01;;;;;;;3.03;2.93;;;;;;;14.55;100.00;98171.38;4986697;28;20240;-79
2021/07/09 09:28:29;;;;;;;3.10;3.00;;;;;;;14.62;100.00;98191.78;4990090;28;20216;-78
2021/07/09 09:30:59;;;;;;;3.33;3.13;;;;;;;14.65;100.00;98192.44;4988804;28;20267;-78
2021/07/09 09:33:35;;;;;;;3.77;3.57;;;;;;;14.59;100.00;98189.50;4988459;28;20682;-76
2021/07/09 09:36:08;;;;;;;3.63;3.33;;;;;;;14.48;100.00;98198.78;4985770;28;21034;-80
2021/07/09 09:38:36;;;;;;;2.30;2.20;;;;;;;14.36;100.00;98200.25;4983091;28;20542;-76
2021/07/09 09:41:04;;;;;;;2.60;2.50;;;;;;;14.21;100.00;98202.09;4982785;28;20206;-78
2021/07/09 09:43:33;;;;;;;2.30;2.20;;;;;;;14.08;100.00;98208.88;4982910;28;20206;-78
2021/07/09 09:46:05;;;;;;;2.60;2.20;;;;;;;14.02;100.00;98207.78;4983155;28;20237;-80
2021/07/09 09:48:39;;;;;;;1.87;1.77;;;;;;;13.86;100.00;98208.75;4983535;28;20210;-80
2021/07/09 09:51:27;;;;;;;2.20;2.00;;;;;;;13.83;100.00;98218.91;4985824;28;20217;-77
2021/07/09 09:53:57;;;;;;;1.80;1.80;;;;;;;13.85;100.00;98214.25;4987938;28;20217;-77
2021/07/09 09:56:43;;;;;;;2.30;2.20;;;;;;;13.92;100.00;98219.69;4986998;28;20288;-76
2021/07/09 09:59:18;;;;;;;2.60;2.50;;;;;;;14.10;100.00;98212.19;4986215;28;20218;-74
2021/07/09 10:01:53;;;;;;;2.20;2.10;;;;;;;14.22;100.00;98215.22;4981959;28;20209;-81
2021/07/09 10:04:22;;;;;;;2.23;2.13;;;;;;;14.30;100.00;98222.31;4984245;28;20658;-76
2021/07/09 10:06:50;;;;;;;2.30;2.20;;;;;;;14.41;100.00;98215.72;4977686;28;20603;-76
2021/07/09 10:09:19;;;;;;;2.37;2.27;;;;;;;14.44;100.00;98221.50;4989658;28;20205;-76
2021/07/09 10:11:47;;;;;;;1.93;1.83;;;;;;;14.51;100.00;98234.09;4988268;28;20209;-77
2021/07/09 10:14:17;;;;;;;2.53;2.43;;;;;;;14.52;100.00;98233.06;4987103;28;20683;-78
2021/07/09 10:16:47;;;;;;;2.30;2.20;;;;;;;14.53;100.00;98234.72;4985556;28;20253;-77
2021/07/09 10:19:20;;;;;;;1.90;1.80;;;;;;;14.46;100.00;98238.13;4987440;28;20288;-76
2021/07/09 10:21:48;;;;;;;1.93;1.83;;;;;;;14.54;100.00;98247.06;4985364;28;20268;-76
2021/07/09 10:24:18;;;;;;;2.03;2.00;;;;;;;14.59;100.00;98236.69;4988750;28;20682;-76
2021/07/09 10:26:49;;;;;;;2.17;2.07;;;;;;;14.55;100.00;98248.72;4987608;28;20693;-78
2021/07/09 10:29:19;;;;;;;2.33;2.23;;;;;;;14.59;100.00;98250.84;4983397;28;20233;-76
2021/07/09 10:31:49;;;;;;;1.73;1.63;;;;;;;14.60;100.00;98249.00;4981755;28;20305;-76
2021/07/09 10:34:30;;;;;;;2.37;2.27;;;;;;;14.68;100.00;98256.06;4986947;28;20292;-76
2021/07/09 10:37:00;;;;;;;2.63;2.53;;;;;;;14.81;100.00;98255.47;4983678;28;20225;-77
2021/07/09 10:39:39;;;;;;;2.37;2.27;;;;;;;14.97;100.00;98257.09;4981532;28;20297;-76
2021/07/09 10:42:15;;;;;;;2.60;2.50;;;;;;;15.23;100.00;98253.13;4982966;28;20347;-77
2021/07/09 10:45:08;;;;;;;2.23;2.13;;;;;;;15.33;100.00;98250.97;4983448;28;20212;-76
2021/07/09 10:47:41;;;;;;;2.13;1.93;;;;;;;15.36;100.00;98261.25;4985978;28;20564;-76
2021/07/09 10:50:12;;;;;;;2.17;2.07;;;;;;;15.60;100.00;98265.44;4985021;28;20226;-76
2021/07/09 10:52:47;;;;;;;3.23;2.00;;;;;;;15.73;100.00;98269.25;4988096;28;20712;-77
2021/07/09 10:55:41;;;;;;;2.30;2.20;;;;;;;15.74;100.00;98268.25;4983612;28;20562;-76
2021/07/09 10:58:39;;;;;;;2.00;1.90;;;;;;;15.96;100.00;98271.78;4983304;28;20216;-76
2021/07/09 11:01:12;;;;;;;1.80;1.70;;;;;;;15.98;100.00;98279.59;4984268;28;20210;-76
2021/07/09 11:03:42;;;;;;;2.13;2.03;;;;;;;15.79;100.00;98287.19;4974900;28;20525;-75
2021/07/09 11:06:19;;;;;;;1.83;1.83;;;;;;;15.74;100.00;98281.59;4977885;28;20232;-75
2021/07/09 11:09:03;;;;;;;1.73;1.73;;;;;;;15.84;100.00;98279.44;4974925;28;20720;-74
2021/07/09 11:11:38;;;;;;;2.93;1.93;;;;;;;15.73;100.00;98287.97;4977140;28;20546;-75
2021/07/09 11:14:14;;;;;;;2.03;1.93;;;;;;;15.80;100.00;98301.38;4974212;28;20285;-74
2021/07/09 11:16:47;;;;;;;1.90;1.80;;;;;;;15.98;100.00;98303.63;4975003;28;20271;-75
2021/07/09 11:19:22;;;;;;;1.97;1.87;;;;;;;15.72;100.00;98296.97;4981492;28;20213;-74
2021/07/09 11:21:58;;;;;;;2.07;1.97;;;;;;;15.88;100.00;98303.94;4983567;28;20213;-74
2021/07/09 11:24:34;;;;;;;2.00;1.90;;;;;;;15.61;100.00;98309.81;4986572;28;20196;-74
2021/07/09 11:27:08;;;;;;;1.40;1.40;;;;;;;15.67;100.00;98312.75;4985219;28;20232;-75
2021/07/09 11:29:42;;;;;;;1.97;1.90;;;;;;;16.25;100.00;98314.56;4985703;28;20699;-74
2021/07/09 11:32:16;;;;;;;1.50;1.50;;;;;;;15.82;100.00;98315.38;4985709;28;20613;-75
2021/07/09 11:34:46;;;;;;;1.07;1.00;;;;;;;15.89;100.00;98321.63;4983558;28;20217;-77
2021/07/09 11:37:17;;;;;;;0.97;0.97;;;;;;;16.08;100.00;98327.38;4986061;28;20225;-74